createdAt,value
2019-04-27T00:01:30.087Z,17.55
2019-04-27T00:04:35.962Z,17.50
2019-04-27T00:07:27.081Z,17.34
2019-04-27T00:10:05.698Z,17.27
2019-04-27T00:12:37.965Z,17.13
2019-04-27T00:15:13.084Z,17.16
2019-04-27T00:18:03.749Z,17.08
2019-04-27T00:20:54.579Z,17.04
2019-04-27T00:23:26.909Z,16.99
2019-04-27T00:25:59.014Z,16.97
2019-04-27T00:28:33.209Z,16.88
2019-04-27T00:31:05.218Z,16.89
2019-04-27T00:33:37.088Z,16.80
2019-04-27T00:36:18.767Z,16.81
2019-04-27T00:38:59.418Z,16.74
2019-04-27T00:41:33.971Z,16.65
2019-04-27T00:44:06.273Z,16.62
2019-04-27T00:46:38.159Z,16.66
2019-04-27T00:49:10.033Z,16.63
2019-04-27T00:51:43.361Z,16.51
2019-04-27T00:54:15.378Z,16.46
2019-04-27T00:56:56.091Z,16.48
2019-04-27T00:59:55.917Z,16.38
2019-04-27T01:02:38.864Z,16.27
2019-04-27T01:05:17.854Z,16.23
2019-04-27T01:07:49.923Z,16.16
2019-04-27T01:10:23.350Z,16.10
2019-04-27T01:12:55.315Z,16.02
2019-04-27T01:15:28.525Z,15.93
2019-04-27T01:18:11.690Z,15.92
2019-04-27T01:20:34.832Z,15.87
2019-04-27T01:23:06.723Z,15.82
2019-04-27T01:25:56.802Z,15.62
2019-04-27T01:28:33.013Z,15.47
2019-04-27T01:31:09.227Z,15.46
2019-04-27T01:33:41.235Z,15.40
2019-04-27T01:36:13.088Z,15.28
2019-04-27T01:38:45.077Z,15.33
2019-04-27T01:41:19.026Z,15.28
2019-04-27T01:43:50.692Z,15.25
2019-04-27T01:46:23.761Z,15.15
2019-04-27T01:48:55.593Z,15.14
2019-04-27T01:51:29.325Z,15.12
2019-04-27T01:54:00.985Z,15.11
2019-04-27T01:56:32.869Z,15.04
2019-04-27T01:59:04.860Z,14.98
2019-04-27T02:02:13.517Z,14.97
2019-04-27T02:05:02.880Z,14.95
2019-04-27T02:07:35.527Z,15.00
2019-04-27T02:10:08.982Z,14.91
2019-04-27T02:12:51.130Z,15.02
2019-04-27T02:15:22.961Z,14.90
2019-04-27T02:17:55.750Z,14.82
2019-04-27T02:20:28.265Z,14.76
2019-04-27T02:23:01.126Z,14.62
2019-04-27T02:25:33.072Z,14.55
2019-04-27T02:28:12.850Z,14.57
2019-04-27T02:31:02.204Z,14.54
2019-04-27T02:33:43.571Z,14.52
2019-04-27T02:36:15.486Z,14.52
2019-04-27T02:38:49.183Z,14.53
2019-04-27T02:41:21.259Z,14.49
2019-04-27T02:44:16.387Z,14.58
2019-04-27T02:46:50.184Z,14.58
2019-04-27T02:49:21.767Z,14.62
2019-04-27T02:52:03.271Z,14.59
2019-04-27T02:54:36.153Z,14.57
2019-04-27T02:57:10.103Z,14.44
2019-04-27T02:59:41.615Z,14.41
2019-04-27T03:02:35.359Z,14.45
2019-04-27T03:05:12.791Z,14.47
2019-04-27T03:07:42.870Z,14.45
2019-04-27T03:10:14.914Z,14.37
2019-04-27T03:12:51.375Z,14.26
2019-04-27T03:15:34.298Z,14.26
2019-04-27T03:18:16.729Z,14.30
2019-04-27T03:21:00.192Z,14.32
2019-04-27T03:23:31.186Z,14.32
2019-04-27T03:26:21.911Z,14.26
2019-04-27T03:28:54.455Z,14.23
2019-04-27T03:31:26.249Z,14.21
2019-04-27T03:34:03.836Z,14.21
2019-04-27T03:36:32.026Z,14.13
2019-04-27T03:39:05.174Z,14.15
2019-04-27T03:41:37.325Z,14.04
2019-04-27T03:44:09.391Z,14.03
2019-04-27T03:46:42.398Z,14.03
2019-04-27T03:49:27.770Z,14.07
2019-04-27T03:52:03.098Z,14.04
2019-04-27T03:54:42.755Z,14.07
2019-04-27T03:57:23.619Z,14.07
2019-04-27T04:00:00.112Z,14.18
2019-04-27T04:02:32.126Z,14.10
2019-04-27T04:05:04.095Z,14.14
2019-04-27T04:07:35.952Z,14.16
2019-04-27T04:10:10.361Z,14.16
2019-04-27T04:12:49.866Z,14.08
2019-04-27T04:15:42.738Z,14.12
2019-04-27T04:18:14.600Z,14.14
2019-04-27T04:20:46.797Z,14.12
2019-04-27T04:23:20.375Z,14.15
2019-04-27T04:25:54.123Z,14.18
2019-04-27T04:28:25.986Z,14.17
2019-04-27T04:31:00.281Z,14.17
2019-04-27T04:33:31.386Z,14.27
2019-04-27T04:36:03.535Z,14.28
2019-04-27T04:38:35.394Z,14.23
2019-04-27T04:41:10.013Z,14.21
2019-04-27T04:44:00.769Z,14.24
2019-04-27T04:47:00.775Z,14.20
2019-04-27T04:49:32.644Z,14.21
2019-04-27T04:52:04.457Z,14.29
2019-04-27T04:54:36.309Z,14.28
2019-04-27T04:57:09.325Z,14.33
2019-04-27T04:59:43.884Z,14.22
2019-04-27T05:02:15.922Z,14.17
2019-04-27T05:04:49.184Z,14.16
2019-04-27T05:07:21.105Z,14.17
2019-04-27T05:09:52.899Z,14.24
2019-04-27T05:12:24.863Z,14.23
2019-04-27T05:14:58.941Z,14.28
2019-04-27T05:17:30.762Z,14.25
2019-04-27T05:20:05.328Z,14.27
2019-04-27T05:22:37.194Z,14.30
2019-04-27T05:25:09.333Z,14.27
2019-04-27T05:27:42.781Z,14.26
2019-04-27T05:30:14.641Z,14.24
2019-04-27T05:32:46.516Z,14.31
2019-04-27T05:35:19.426Z,14.30
2019-04-27T05:37:51.273Z,14.28
2019-04-27T05:40:23.045Z,14.25
2019-04-27T05:42:56.184Z,14.04
2019-04-27T05:46:39.897Z,13.89
2019-04-27T05:49:17.022Z,13.89
2019-04-27T05:51:50.118Z,13.86
2019-04-27T05:54:22.054Z,13.85
2019-04-27T05:56:53.917Z,13.76
2019-04-27T05:59:25.774Z,13.69
2019-04-27T06:01:59.267Z,13.75
2019-04-27T06:04:32.193Z,13.56
2019-04-27T06:07:04.043Z,13.49
2019-04-27T06:09:35.887Z,13.52
2019-04-27T06:12:08.977Z,13.52
2019-04-27T06:14:40.851Z,13.54
2019-04-27T06:17:12.630Z,13.45
2019-04-27T06:19:44.422Z,13.45
2019-04-27T06:22:16.314Z,13.41
2019-04-27T06:24:52.753Z,13.44
2019-04-27T06:27:21.724Z,13.21
2019-04-27T06:29:53.937Z,13.22
2019-04-27T06:32:25.807Z,13.15
2019-04-27T06:34:58.956Z,13.15
2019-04-27T06:37:31.039Z,13.20
2019-04-27T06:40:02.837Z,13.16
2019-04-27T06:42:34.720Z,13.16
2019-04-27T06:45:06.891Z,13.08
2019-04-27T06:47:39.708Z,13.08
2019-04-27T06:50:12.426Z,13.07
2019-04-27T06:52:44.293Z,12.87
2019-04-27T06:55:16.400Z,12.76
2019-04-27T06:57:49.075Z,12.86
2019-04-27T07:00:21.912Z,12.87
2019-04-27T07:02:55.304Z,12.84
2019-04-27T07:05:28.900Z,12.88
2019-04-27T07:08:00.896Z,12.99
2019-04-27T07:10:32.770Z,13.08
2019-04-27T07:13:04.628Z,13.10
2019-04-27T07:15:36.532Z,13.16
2019-04-27T07:18:09.700Z,13.09
2019-04-27T07:20:41.669Z,13.15
2019-04-27T07:23:13.580Z,13.06
2019-04-27T07:25:45.383Z,13.03
2019-04-27T07:28:19.042Z,12.87
2019-04-27T07:30:50.927Z,12.84
2019-04-27T07:33:22.794Z,12.74
2019-04-27T07:35:54.624Z,12.83
2019-04-27T07:38:26.490Z,12.76
2019-04-27T07:40:58.747Z,12.71
2019-04-27T07:43:54.487Z,12.70
2019-04-27T07:46:29.852Z,12.71
2019-04-27T07:48:59.973Z,12.58
2019-04-27T07:51:34.294Z,12.64
2019-04-27T07:54:05.844Z,12.71
2019-04-27T07:56:38.991Z,12.68
2019-04-27T07:59:10.922Z,12.70
2019-04-27T08:01:42.774Z,12.81
2019-04-27T08:04:14.637Z,12.83
2019-04-27T08:06:46.761Z,12.77
2019-04-27T08:09:19.083Z,12.78
2019-04-27T08:11:50.997Z,12.89
2019-04-27T08:14:23.007Z,12.89
2019-04-27T08:16:54.909Z,12.82
2019-04-27T08:19:26.796Z,12.81
2019-04-27T08:21:59.588Z,12.81
2019-04-27T08:24:33.163Z,12.81
2019-04-27T08:27:26.954Z,12.93
2019-04-27T08:30:23.581Z,12.88
2019-04-27T08:32:55.509Z,12.81
2019-04-27T08:35:29.464Z,12.84
2019-04-27T08:38:00.905Z,12.78
2019-04-27T08:40:32.777Z,12.85
2019-04-27T08:43:04.659Z,12.85
2019-04-27T08:45:36.517Z,12.92
2019-04-27T08:48:09.332Z,12.98
2019-04-27T08:50:42.122Z,12.90
2019-04-27T08:53:14.256Z,12.93
2019-04-27T08:55:46.393Z,12.92
2019-04-27T08:58:21.089Z,12.91
2019-04-27T09:00:52.285Z,12.83
2019-04-27T09:03:24.208Z,12.85
2019-04-27T09:05:56.110Z,12.86
2019-04-27T09:08:42.816Z,12.87
2019-04-27T09:11:39.680Z,12.93
2019-04-27T09:14:34.177Z,12.99
2019-04-27T09:17:19.909Z,12.86
2019-04-27T09:20:10.720Z,12.78
2019-04-27T09:22:42.666Z,12.83
2019-04-27T09:25:15.102Z,12.71
2019-04-27T09:27:49.269Z,12.70
2019-04-27T09:30:21.401Z,12.72
2019-04-27T09:32:53.284Z,12.63
2019-04-27T09:35:26.450Z,12.68
2019-04-27T09:37:59.345Z,12.69
2019-04-27T09:40:31.287Z,12.74
2019-04-27T09:43:05.023Z,12.83
2019-04-27T09:45:37.278Z,12.98
2019-04-27T09:48:09.458Z,13.02
2019-04-27T09:50:42.492Z,13.14
2019-04-27T09:53:17.150Z,13.09
2019-04-27T09:55:53.108Z,13.10
2019-04-27T09:58:25.936Z,13.10
2019-04-27T10:00:59.123Z,12.89
2019-04-27T10:03:31.094Z,12.94
2019-04-27T10:06:03.107Z,12.95
2019-04-27T10:08:36.666Z,12.90
2019-04-27T10:11:09.142Z,12.84
2019-04-27T10:13:41.157Z,12.77
2019-04-27T10:16:13.074Z,12.74
2019-04-27T10:18:45.868Z,12.84
2019-04-27T10:21:18.148Z,12.93
2019-04-27T10:23:50.791Z,12.99
2019-04-27T10:26:22.806Z,12.97
2019-04-27T10:28:56.108Z,13.00
2019-04-27T10:31:30.288Z,13.02
2019-04-27T10:34:05.894Z,13.09
2019-04-27T10:36:40.374Z,13.10
2019-04-27T10:39:14.109Z,13.13
2019-04-27T10:41:46.580Z,12.97
2019-04-27T10:44:19.464Z,12.96
2019-04-27T10:46:52.318Z,13.00
2019-04-27T10:49:24.512Z,13.07
2019-04-27T10:51:56.659Z,13.07
2019-04-27T10:54:29.103Z,13.11
2019-04-27T10:57:01.158Z,13.22
2019-04-27T10:59:35.907Z,13.26
2019-04-27T11:02:07.901Z,13.30
2019-04-27T11:04:53.026Z,13.35
2019-04-27T11:07:28.429Z,13.39
2019-04-27T11:10:00.447Z,13.56
2019-04-27T11:12:32.314Z,13.64
2019-04-27T11:15:09.611Z,13.64
2019-04-27T11:17:41.482Z,13.82
2019-04-27T11:20:13.657Z,13.84
2019-04-27T11:22:46.501Z,13.74
2019-04-27T11:25:18.455Z,13.68
2019-04-27T11:27:50.312Z,13.70
2019-04-27T11:30:22.375Z,13.70
2019-04-27T11:32:56.765Z,13.72
2019-04-27T11:35:39.293Z,13.64
2019-04-27T11:38:11.100Z,13.65
2019-04-27T11:40:42.903Z,13.70
2019-04-27T11:43:16.079Z,13.64
2019-04-27T11:45:48.459Z,13.65
2019-04-27T11:48:21.371Z,13.78
2019-04-27T11:50:55.929Z,13.87
2019-04-27T11:53:27.940Z,13.80
2019-04-27T11:55:59.832Z,13.77
2019-04-27T11:58:35.031Z,13.75
2019-04-27T12:01:08.476Z,13.75
2019-04-27T12:03:40.397Z,13.67
2019-04-27T12:06:12.290Z,13.69
2019-04-27T12:08:45.767Z,13.79
2019-04-27T12:11:18.173Z,13.79
2019-04-27T12:13:50.036Z,13.70
2019-04-27T12:16:22.075Z,13.69
2019-04-27T12:18:54.079Z,13.67
2019-04-27T12:21:25.965Z,13.71
2019-04-27T12:23:57.822Z,13.78
2019-04-27T12:26:55.789Z,13.85
2019-04-27T12:29:47.965Z,13.85
2019-04-27T12:32:19.954Z,14.10
2019-04-27T12:34:52.693Z,14.13
2019-04-27T12:37:26.691Z,14.33
2019-04-27T12:39:58.626Z,14.52
2019-04-27T12:42:31.489Z,14.72
2019-04-27T12:45:04.029Z,14.68
2019-04-27T12:47:36.572Z,14.67
2019-04-27T12:50:09.753Z,14.76
2019-04-27T12:52:43.311Z,14.76
2019-04-27T12:55:32.344Z,14.86
2019-04-27T12:58:26.627Z,14.95
2019-04-27T13:01:00.180Z,15.28
2019-04-27T13:03:32.212Z,15.51
2019-04-27T13:06:04.071Z,15.49
2019-04-27T13:08:35.941Z,15.34
2019-04-27T13:11:07.987Z,15.27
2019-04-27T13:13:39.846Z,15.07
2019-04-27T13:16:11.705Z,15.12
2019-04-27T13:18:43.991Z,15.30
2019-04-27T13:21:18.022Z,15.43
2019-04-27T13:24:01.251Z,15.37
2019-04-27T13:26:23.305Z,15.48
2019-04-27T13:28:56.120Z,15.63
2019-04-27T13:31:28.146Z,15.72
2019-04-27T13:34:02.639Z,15.80
2019-04-27T13:36:34.437Z,15.82
2019-04-27T13:39:08.466Z,15.94
2019-04-27T13:41:41.909Z,15.70
2019-04-27T13:44:16.024Z,16.05
2019-04-27T13:47:06.292Z,16.30
2019-04-27T13:50:00.165Z,16.43
2019-04-27T13:52:33.026Z,16.33
2019-04-27T13:55:05.863Z,16.06
2019-04-27T13:57:49.803Z,16.12
2019-04-27T14:00:12.833Z,16.03
2019-04-27T14:02:45.087Z,15.88
2019-04-27T14:05:16.952Z,15.80
2019-04-27T14:07:49.424Z,15.82
2019-04-27T14:10:21.515Z,15.70
2019-04-27T14:12:53.385Z,15.74
2019-04-27T14:15:25.174Z,15.75
2019-04-27T14:17:59.068Z,15.65
2019-04-27T14:20:32.247Z,15.64
2019-04-27T14:23:16.410Z,15.64
2019-04-27T14:25:48.483Z,15.54
2019-04-27T14:28:22.095Z,15.59
2019-04-27T14:30:53.903Z,15.73
2019-04-27T14:33:25.755Z,15.88
2019-04-27T14:35:59.389Z,16.02
2019-04-27T14:38:31.763Z,16.04
2019-04-27T14:41:04.080Z,16.17
2019-04-27T14:43:35.943Z,15.97
2019-04-27T14:46:08.233Z,16.10
2019-04-27T14:48:40.228Z,16.01
2019-04-27T14:51:12.031Z,16.26
2019-04-27T14:53:43.805Z,16.29
2019-04-27T14:56:18.093Z,16.45
2019-04-27T14:58:49.652Z,16.40
2019-04-27T15:01:22.111Z,16.32
2019-04-27T15:03:53.972Z,16.25
2019-04-27T15:06:25.867Z,16.13
2019-04-27T15:08:57.650Z,15.93
2019-04-27T15:11:31.539Z,15.84
2019-04-27T15:14:04.408Z,15.88
2019-04-27T15:16:37.799Z,15.96
2019-04-27T15:19:17.848Z,15.99
2019-04-27T15:21:57.788Z,15.96
2019-04-27T15:24:23.846Z,15.95
2019-04-27T15:27:00.802Z,16.10
2019-04-27T15:29:31.445Z,16.34
2019-04-27T15:32:10.948Z,16.56
2019-04-27T15:35:05.025Z,16.49
2019-04-27T15:37:44.664Z,16.59
2019-04-27T15:40:35.385Z,16.63
2019-04-27T15:43:15.492Z,16.40
2019-04-27T15:45:48.693Z,16.17
2019-04-27T15:48:25.010Z,16.28
2019-04-27T15:50:54.781Z,16.34
2019-04-27T15:53:28.342Z,16.49
2019-04-27T15:56:02.078Z,16.65
2019-04-27T15:58:34.036Z,16.82
2019-04-27T16:01:09.873Z,16.75
2019-04-27T16:03:40.794Z,16.76
2019-04-27T16:06:12.851Z,16.62
2019-04-27T16:08:46.807Z,16.67
2019-04-27T16:11:19.828Z,16.74
2019-04-27T16:13:52.062Z,16.70
2019-04-27T16:16:24.453Z,16.87
2019-04-27T16:18:59.344Z,16.88
2019-04-27T16:21:31.723Z,16.92
2019-04-27T16:24:03.681Z,16.81
2019-04-27T16:26:38.614Z,16.82
2019-04-27T16:29:10.689Z,16.84
2019-04-27T16:31:42.627Z,16.87
2019-04-27T16:34:15.135Z,17.24
2019-04-27T16:36:47.720Z,17.30
2019-04-27T16:39:20.386Z,17.84
2019-04-27T16:41:52.692Z,17.66
2019-04-27T16:44:24.573Z,17.61
2019-04-27T16:46:58.243Z,17.62
2019-04-27T16:49:30.218Z,17.55
2019-04-27T16:52:02.099Z,17.27
2019-04-27T16:54:35.127Z,17.14
2019-04-27T16:57:07.971Z,17.09
2019-04-27T16:59:45.732Z,17.06
2019-04-27T17:02:17.402Z,16.99
2019-04-27T17:04:52.841Z,16.91
2019-04-27T17:07:21.609Z,16.76
2019-04-27T17:09:53.697Z,16.66
2019-04-27T17:12:32.295Z,16.69
2019-04-27T17:15:16.667Z,16.67
2019-04-27T17:18:10.703Z,16.66
2019-04-27T17:20:43.405Z,16.64
2019-04-27T17:23:22.542Z,16.59
2019-04-27T17:25:52.916Z,16.57
2019-04-27T17:28:24.969Z,16.57
2019-04-27T17:30:58.273Z,16.47
2019-04-27T17:33:38.124Z,16.41
2019-04-27T17:36:12.093Z,16.40
2019-04-27T17:38:47.340Z,16.33
2019-04-27T17:41:19.605Z,16.26
2019-04-27T17:43:51.878Z,16.26
2019-04-27T17:46:23.698Z,16.18
2019-04-27T17:48:55.592Z,16.09
2019-04-27T17:51:30.692Z,16.05
2019-04-27T17:54:02.941Z,15.99
2019-04-27T17:56:38.254Z,15.93
2019-04-27T17:59:16.480Z,15.77
2019-04-27T18:01:43.201Z,15.64
2019-04-27T18:04:15.063Z,15.57
2019-04-27T18:06:48.360Z,15.54
2019-04-27T18:09:21.215Z,15.48
2019-04-27T18:11:54.439Z,15.37
2019-04-27T18:14:32.616Z,15.31
2019-04-27T18:17:03.677Z,15.24
2019-04-27T18:19:55.590Z,15.14
2019-04-27T18:22:32.162Z,15.03
2019-04-27T18:25:06.817Z,14.98
2019-04-27T18:27:52.779Z,14.93
2019-04-27T18:30:43.995Z,14.76
2019-04-27T18:33:18.438Z,14.61
2019-04-27T18:35:51.113Z,14.52
2019-04-27T18:38:23.752Z,14.42
2019-04-27T18:40:55.850Z,14.32
2019-04-27T18:43:29.623Z,14.26
2019-04-27T18:46:03.571Z,14.24
2019-04-27T18:48:55.987Z,14.17
2019-04-27T18:51:48.420Z,14.05
2019-04-27T18:54:21.801Z,14.07
2019-04-27T18:57:01.897Z,14.01
2019-04-27T18:59:28.824Z,14.08
2019-04-27T19:02:01.270Z,14.03
2019-04-27T19:04:33.514Z,13.97
2019-04-27T19:07:05.437Z,13.87
2019-04-27T19:09:37.518Z,13.75
2019-04-27T19:12:09.552Z,13.75
2019-04-27T19:14:41.932Z,13.70
2019-04-27T19:17:13.842Z,13.73
2019-04-27T19:19:47.305Z,13.75
2019-04-27T19:22:19.779Z,13.65
2019-04-27T19:24:51.859Z,13.65
2019-04-27T19:27:33.002Z,13.62
2019-04-27T19:30:19.449Z,13.55
2019-04-27T19:32:51.684Z,13.53
2019-04-27T19:35:23.715Z,13.50
2019-04-27T19:37:55.622Z,13.42
2019-04-27T19:40:29.026Z,13.39
2019-04-27T19:43:01.022Z,13.35
2019-04-27T19:45:33.098Z,13.26
2019-04-27T19:48:05.026Z,13.13
2019-04-27T19:50:36.951Z,13.09
2019-04-27T19:53:09.725Z,13.08
2019-04-27T19:55:49.807Z,13.06
2019-04-27T19:58:21.811Z,12.92
2019-04-27T20:01:11.470Z,12.88
2019-04-27T20:03:38.713Z,12.85
2019-04-27T20:06:12.197Z,12.85
2019-04-27T20:08:49.012Z,12.74
2019-04-27T20:11:24.173Z,12.71
2019-04-27T20:13:58.029Z,12.75
2019-04-27T20:16:31.924Z,12.74
2019-04-27T20:19:04.104Z,12.74
2019-04-27T20:21:36.078Z,12.70
2019-04-27T20:24:08.685Z,12.66
2019-04-27T20:26:40.583Z,12.62
2019-04-27T20:29:14.363Z,12.62
2019-04-27T20:31:46.819Z,12.64
2019-04-27T20:34:21.155Z,12.59
2019-04-27T20:36:52.954Z,12.60
2019-04-27T20:39:24.912Z,12.43
2019-04-27T20:41:56.987Z,12.46
2019-04-27T20:44:31.073Z,12.49
2019-04-27T20:47:02.751Z,12.50
2019-04-27T20:49:34.683Z,12.50
2019-04-27T20:52:12.916Z,12.42
2019-04-27T20:54:44.932Z,12.42
2019-04-27T20:57:16.845Z,12.45
2019-04-27T20:59:50.501Z,12.42
2019-04-27T21:02:42.086Z,12.47
2019-04-27T21:05:26.234Z,12.49
2019-04-27T21:08:01.933Z,12.41
2019-04-27T21:10:34.906Z,12.33
2019-04-27T21:13:07.837Z,12.21
2019-04-27T21:15:41.722Z,12.18
2019-04-27T21:18:13.368Z,12.18
2019-04-27T21:20:45.249Z,12.13
2019-04-27T21:23:17.124Z,12.07
2019-04-27T21:25:51.223Z,12.01
2019-04-27T21:28:22.601Z,11.91
2019-04-27T21:30:54.423Z,12.00
2019-04-27T21:33:26.310Z,12.03
2019-04-27T21:35:58.205Z,12.02
2019-04-27T21:38:30.110Z,11.95
2019-04-27T21:41:01.995Z,12.00
2019-04-27T21:43:33.903Z,12.03
2019-04-27T21:46:05.825Z,12.06
2019-04-27T21:48:37.718Z,12.15
2019-04-27T21:51:11.308Z,12.07
2019-04-27T21:54:03.528Z,12.11
2019-04-27T21:56:35.410Z,12.02
2019-04-27T21:59:11.103Z,11.96
2019-04-27T22:01:44.538Z,11.95
2019-04-27T22:04:16.619Z,11.95
2019-04-27T22:06:48.498Z,12.01
2019-04-27T22:09:20.661Z,11.92
2019-04-27T22:11:53.105Z,11.90
2019-04-27T22:14:24.998Z,11.84
2019-04-27T22:16:56.885Z,11.85
2019-04-27T22:19:28.700Z,11.84
2019-04-27T22:22:02.246Z,11.86
2019-04-27T22:24:37.468Z,11.92
2019-04-27T22:27:09.467Z,11.90
2019-04-27T22:29:41.370Z,11.87
2019-04-27T22:32:13.279Z,11.76
2019-04-27T22:34:45.165Z,11.69
2019-04-27T22:37:17.140Z,11.59
2019-04-27T22:40:12.003Z,11.62
2019-04-27T22:43:02.871Z,11.55
2019-04-27T22:45:35.553Z,11.56
2019-04-27T22:48:07.461Z,11.64
2019-04-27T22:50:41.296Z,11.69
2019-04-27T22:53:12.911Z,11.70
2019-04-27T22:56:02.117Z,11.56
2019-04-27T22:58:35.308Z,11.57
2019-04-27T23:01:16.630Z,11.58
2019-04-27T23:03:48.875Z,11.54
2019-04-27T23:06:22.381Z,11.53
2019-04-27T23:08:54.333Z,11.49
2019-04-27T23:11:26.342Z,11.46
2019-04-27T23:13:58.216Z,11.39
2019-04-27T23:16:31.740Z,11.43
2019-04-27T23:19:03.570Z,11.34
2019-04-27T23:21:35.543Z,11.36
2019-04-27T23:24:07.431Z,11.41
2019-04-27T23:26:39.320Z,11.53
2019-04-27T23:29:15.722Z,11.52
2019-04-27T23:32:06.774Z,11.51
2019-04-27T23:34:38.595Z,11.50
2019-04-27T23:37:10.469Z,11.44
2019-04-27T23:39:42.578Z,11.42
2019-04-27T23:42:14.676Z,11.48
2019-04-27T23:44:46.564Z,11.50
2019-04-27T23:47:18.436Z,11.49
2019-04-27T23:49:50.923Z,11.44
2019-04-27T23:52:28.385Z,11.37
2019-04-27T23:55:02.236Z,11.39
2019-04-27T23:57:33.784Z,11.29
